Terminal Aerodrome Forecast
Issued by NWS Wichita, KS

Home | Current Version | Previous Version | Text Only | Print | Product List | Glossary On
Versions: 1 2 3 4 5 6 7 8 9 10 11 12 13 14 15 16 17
000
FTUS43 KICT 141700
TAFICT
TAF
KICT 141720Z 1418/1518 17013G19KT P6SM BKN040
     FM142000 17013G19KT P6SM SCT040
     FM150100 17010KT P6SM FEW040
     FM151500 20010KT P6SM SCT250=

USA.gov is the U.S. government's official web portal to all federal, state and local government web resources and services.